Flomaton, Alabama
Current Conditions -  °F | °C
As of 5:56 PM on Saturday 22 Nov 2014 (Local Time) from KNSE Reporting Station
Light Rain Light Rain  
Wind Chill: 59°   Ceiling: 600
Heat Index: 59°   Visibility: 10mi
Dew Point: 58°   Wind: 8mph
Humidity: 96%   Direction: 80°E
Pressure: 30.11"   Gusts: NA
Location:  31°N, 87.26°W
Report Text: KNSE 222356Z AUTO 08007KT 10SM -RA OVC006 15/14 A3011 RMK AO2 CIG 003V009 SLP185 P0000 60000 T01500144 10194 20150 57007 $
Loading
Personal Weather Stations






























Interactive Weather Map New forecast layout! Learn more

10-Day Weather Forecast

Advertisements
Track Severe Weather on mobile